Date,TemperatureHighF,TemperatureAvgF,TemperatureLowF,DewpointHighF,DewpointAvgF,DewpointLowF,HumidityHigh,HumidityAvg,HumidityLow,PressureMaxIn,PressureMinIn,WindSpeedMaxMPH,WindSpeedAvgMPH,GustSpeedMaxMPH,PrecipitationSumIn
2013-1-1,69.0,63.0,59.2,65.0,60.9,57.0,96,93,84,30.19,30.00,6,1,8,0.00
2013-1-2,68.5,62.4,59.0,64.0,60.4,55.0,96,93,83,30.09,29.96,9,1,10,0.01
2013-1-3,59.0,50.6,45.7,55.0,48.1,44.0,96,91,81,30.29,30.07,8,3,15,0.31
2013-1-4,53.5,46.7,40.1,45.0,41.7,38.0,94,83,65,30.36,30.27,6,1,11,0.00
2013-1-5,60.9,50.2,41.9,47.0,42.6,36.0,93,77,50,30.36,30.25,6,1,9,0.12
2013-1-6,55.5,51.4,47.0,51.0,47.2,44.0,93,85,79,30.25,30.13,9,2,11,0.00
2013-1-7,62.2,53.1,47.2,48.0,43.3,40.0,85,71,47,30.29,30.20,7,2,15,0.00
2013-1-8,70.6,61.4,52.0,63.0,57.0,48.0,93,85,76,30.27,30.17,6,2,12,0.00
2013-1-9,69.0,66.1,62.9,67.0,64.3,61.0,95,94,90,30.28,30.16,7,2,14,0.00
2013-1-10,72.6,66.6,61.8,67.0,64.3,60.0,96,92,82,30.27,30.20,7,2,11,0.00
2013-1-11,75.3,66.9,62.4,69.0,64.4,61.0,95,92,80,30.22,30.09,7,1,10,0.00
2013-1-12,74.8,66.6,61.9,69.0,64.3,61.0,96,92,81,30.15,30.05,4,1,7,0.02
2013-1-13,73.9,66.7,63.7,69.0,65.0,63.0,96,94,83,30.10,30.00,8,2,11,0.01
2013-1-14,73.9,67.1,64.4,70.0,65.4,63.0,96,94,84,30.14,30.04,6,1,10,0.01
2013-1-15,72.1,67.0,64.7,69.0,65.4,63.0,96,94,89,30.10,30.01,10,2,11,0.01
2013-1-16,73.9,69.0,66.9,70.0,67.3,65.0,95,93,86,30.04,29.95,10,4,12,0.21
2013-1-17,66.9,53.8,45.0,65.0,48.6,38.0,94,82,68,30.23,29.95,18,7,27,0.11
2013-1-18,61.5,48.6,40.0,42.0,38.5,36.0,88,70,40,30.44,30.23,8,2,16,0.00
2013-1-19,65.4,54.8,46.3,55.0,44.7,31.0,83,69,53,30.38,30.21,7,2,12,0.00
2013-1-20,67.8,58.8,49.3,57.0,52.0,46.0,89,79,68,30.23,30.11,4,1,10,0.00
2013-1-21,65.9,57.7,47.8,53.0,49.0,42.0,89,74,53,30.19,30.09,5,1,8,0.00
2013-1-22,60.6,51.8,42.8,44.0,37.9,31.0,76,60,38,30.34,30.15,9,2,12,0.00
2013-1-23,62.8,53.2,38.9,50.0,40.1,31.0,80,62,44,30.43,30.32,8,2,9,0.00
2013-1-24,69.6,62.6,57.0,59.0,55.4,49.0,93,78,64,30.36,30.25,7,1,10,0.00
2013-1-25,68.4,61.1,53.0,62.0,57.8,52.0,96,89,77,30.32,30.19,6,1,8,0.00
2013-1-26,71.4,65.8,61.9,65.0,62.1,59.0,94,88,77,30.26,30.18,7,1,11,0.00
2013-1-27,73.1,62.7,54.8,64.0,58.7,53.0,95,87,67,30.32,30.24,7,1,10,0.01
2013-1-28,71.4,65.2,60.1,66.0,62.2,58.0,94,90,81,30.31,30.20,9,1,12,0.00
2013-1-29,75.3,68.5,64.8,69.0,65.5,63.0,95,90,79,30.20,30.00,10,2,12,0.00
2013-1-30,73.4,67.9,59.4,70.0,64.7,49.0,95,89,66,30.00,29.73,20,11,34,0.22
2013-1-31,59.4,50.4,44.1,50.0,34.4,29.0,76,55,37,30.28,29.97,19,5,24,0.00
2013-2-1,63.6,52.5,40.5,47.0,38.5,28.0,80,60,49,30.38,30.28,8,1,17,0.00
2013-2-2,60.1,49.9,37.3,49.0,37.2,23.0,77,62,53,30.38,30.21,11,2,11,0.00
2013-2-3,63.8,58.4,49.4,54.0,46.6,40.0,90,66,47,30.24,30.12,10,2,17,0.00
2013-2-4,70.9,57.3,45.6,56.0,49.7,42.0,91,77,54,30.13,30.02,10,1,12,0.00
2013-2-5,66.5,62.5,56.3,63.0,59.5,54.0,95,90,76,30.06,29.97,7,2,11,0.51
2013-2-6,68.3,61.7,58.1,64.0,59.7,57.0,96,93,84,30.13,30.01,5,1,9,0.00
2013-2-7,69.1,64.4,59.6,67.0,62.7,58.0,95,94,90,30.05,29.78,15,3,23,0.85
2013-2-8,69.4,61.5,51.7,63.0,58.8,51.0,96,91,78,30.10,29.93,7,1,12,0.01
2013-2-9,66.6,57.5,49.7,58.0,50.2,44.0,94,78,51,30.23,30.10,10,2,12,0.00
2013-2-10,69.2,64.3,54.3,65.0,61.0,45.0,93,89,70,30.20,30.07,15,5,18,0.00
2013-2-11,72.1,67.6,63.9,68.0,65.7,63.0,95,93,87,30.14,30.02,9,4,16,0.00
2013-2-12,72.6,68.9,66.5,71.0,67.4,65.0,96,94,92,30.02,29.84,11,5,16,0.00
2013-2-13,69.9,64.8,49.6,69.0,60.0,47.0,95,85,65,30.02,29.81,13,4,16,0.11
2013-2-14,51.4,47.4,42.5,47.0,44.6,40.0,94,90,80,30.12,29.97,7,2,11,0.14
2013-2-15,62.4,50.7,36.8,51.0,43.4,36.0,95,78,51,30.16,30.02,8,2,9,0.01
2013-2-16,58.3,52.5,44.5,52.0,38.8,21.0,89,62,37,30.24,29.99,16,5,26,0.00
2013-2-17,51.8,43.1,30.0,31.0,25.6,22.0,74,51,38,30.40,30.25,12,3,19,0.00
2013-2-18,59.7,50.3,37.0,51.0,39.1,30.0,84,67,50,30.37,30.20,13,4,20,0.00
2013-2-19,68.2,62.5,55.3,64.0,58.5,42.0,92,86,61,30.19,30.06,14,6,20,0.02
2013-2-20,58.9,51.6,42.2,43.0,36.2,28.0,73,57,36,30.20,30.09,13,2,17,0.00
2013-2-21,69.1,57.0,44.3,60.0,49.8,35.0,94,77,62,30.12,29.98,7,2,13,0.00
2013-2-22,69.0,64.6,61.3,67.0,63.1,60.0,95,95,94,30.00,29.94,7,3,12,0.14
2013-2-23,69.9,66.0,63.3,68.0,64.5,62.0,95,95,93,29.94,29.83,9,4,16,1.07
2013-2-24,68.1,63.2,58.9,63.0,60.5,58.0,95,91,78,29.97,29.86,7,2,10,0.39
2013-2-25,66.4,63.6,60.6,65.0,62.2,59.0,95,95,94,29.84,29.66,12,3,21,4.48
2013-2-26,67.8,64.4,59.1,66.0,57.2,52.0,95,78,65,29.88,29.54,16,6,21,0.99
2013-2-27,60.9,57.6,47.2,53.0,47.7,43.0,88,70,54,30.03,29.88,12,2,12,0.00
2013-2-28,60.4,57.8,53.1,55.0,45.8,38.0,85,65,53,30.04,29.94,12,3,16,0.00
2013-3-1,53.0,49.6,45.6,41.0,37.4,34.0,72,63,56,30.10,29.99,9,3,15,0.00
2013-3-2,50.8,44.4,37.9,36.0,32.7,29.0,81,64,52,30.11,30.00,12,4,20,0.00
2013-3-3,48.7,43.7,38.2,36.0,31.4,28.0,74,63,54,30.17,30.07,9,3,16,0.00
2013-3-4,59.9,50.4,36.0,55.0,37.5,28.0,86,63,37,30.24,30.09,14,3,18,0.00
2013-3-5,69.3,63.6,59.2,64.0,59.6,53.0,94,87,80,30.10,29.97,15,6,20,0.00
2013-3-6,58.2,52.1,46.8,51.0,37.2,31.0,78,57,43,30.22,30.05,17,6,27,0.00
2013-3-7,58.4,49.2,36.5,50.0,39.1,31.0,90,69,50,30.31,30.21,9,2,12,0.00
2013-3-8,64.6,55.2,41.6,53.0,46.8,38.0,95,75,50,30.28,30.19,8,1,9,0.00
2013-3-9,66.6,58.2,48.7,56.0,49.7,45.0,94,75,56,30.26,30.13,7,2,16,0.00
2013-3-10,71.7,63.8,57.3,62.0,58.3,51.0,93,82,69,30.14,30.05,6,2,11,0.00
2013-3-11,66.7,63.1,60.4,63.0,61.0,59.0,95,93,88,30.05,29.80,19,7,28,1.07
2013-3-12,62.3,55.5,47.6,60.0,47.6,43.0,95,76,57,30.13,29.84,16,4,21,0.04
2013-3-13,64.6,57.4,47.3,49.0,42.2,33.0,70,58,39,30.27,30.13,10,4,17,0.00
2013-3-14,61.6,53.2,42.9,44.0,33.5,28.0,63,48,37,30.39,30.25,13,4,18,0.00
2013-3-15,64.9,56.2,42.9,56.0,42.7,29.0,87,62,47,30.32,30.19,8,2,11,0.00
2013-3-16,74.1,64.5,58.6,64.0,59.8,55.0,93,85,67,30.19,30.04,8,2,11,0.00
2013-3-17,66.8,63.4,61.2,63.0,61.4,60.0,95,93,88,30.06,29.95,11,4,15,1.30
2013-3-18,70.8,65.5,62.6,68.0,63.8,61.0,95,94,88,29.99,29.85,8,3,12,0.55
2013-3-19,74.1,66.3,61.7,66.0,62.6,60.0,95,88,71,30.03,29.89,7,2,10,0.03
2013-3-20,73.3,63.7,58.3,61.0,49.6,39.0,94,62,39,30.00,29.89,11,2,16,0.00
2013-3-21,63.4,56.2,47.8,44.0,37.6,31.0,72,51,36,30.04,29.91,10,3,20,0.00
2013-3-22,66.4,57.7,48.9,56.0,46.2,38.0,89,66,53,30.00,29.90,10,2,18,0.00
2013-3-23,69.7,65.5,62.1,67.0,62.4,56.0,94,90,75,29.93,29.70,7,2,12,0.03
2013-3-24,74.2,68.7,64.1,71.0,65.8,53.0,95,90,65,29.76,29.56,18,6,27,0.26
2013-3-25,63.6,54.1,45.3,55.0,37.7,29.0,73,55,37,30.12,29.77,20,6,26,0.00
2013-3-26,54.7,48.1,41.3,36.0,30.0,25.0,57,50,40,30.32,30.13,17,5,23,0.00
2013-3-27,56.1,46.7,34.9,44.0,34.6,29.0,82,64,49,30.41,30.28,8,2,14,0.00
2013-3-28,65.6,53.7,41.0,45.0,41.0,34.0,92,65,35,30.36,30.27,9,2,12,0.00
2013-3-29,69.4,58.9,48.0,58.0,49.6,42.0,93,72,42,30.35,30.24,9,2,11,0.00
2013-3-30,68.8,61.9,54.3,62.0,57.6,52.0,94,86,73,30.26,30.10,7,2,13,0.01
2013-3-31,69.5,66.0,63.4,65.0,62.7,60.0,93,89,82,30.10,29.95,14,6,21,0.00
2013-4-1,74.4,67.7,64.0,67.0,63.4,61.0,94,86,63,30.02,29.92,10,3,14,0.00
2013-4-2,75.9,66.3,56.2,62.0,57.8,49.0,94,76,42,30.12,30.00,8,2,13,0.00
2013-4-3,66.8,62.9,57.4,64.0,61.0,56.0,94,93,90,30.05,29.78,7,2,19,0.65
2013-4-4,74.5,67.8,64.6,68.0,64.8,63.0,94,90,75,29.93,29.82,8,1,17,0.00
2013-4-5,66.2,61.0,50.5,64.0,56.0,48.0,93,83,67,30.08,29.84,12,4,18,0.00
2013-4-6,71.8,58.5,47.1,56.0,50.8,46.0,95,78,43,30.16,30.07,6,2,13,0.00
2013-4-7,73.6,65.7,54.5,66.0,61.4,52.0,94,86,77,30.16,30.07,9,2,13,0.00
2013-4-8,74.3,67.6,57.9,68.0,63.8,56.0,95,88,79,30.13,30.02,12,2,12,0.01
2013-4-9,77.8,69.6,63.0,69.0,65.1,60.0,93,86,73,30.14,30.03,9,2,13,0.00
2013-4-10,77.7,70.6,63.3,69.0,66.5,62.0,94,87,75,30.08,29.93,13,3,14,0.00
2013-4-11,74.8,71.2,69.1,71.0,68.8,67.0,94,92,88,29.93,29.71,17,7,19,0.00
2013-4-12,74.5,69.9,66.0,70.0,65.2,52.0,94,85,60,29.91,29.71,23,4,32,0.19
2013-4-13,76.3,66.9,55.2,61.0,54.3,48.0,86,65,40,30.03,29.92,7,1,10,0.00
2013-4-14,70.9,65.5,60.6,67.0,62.4,56.0,95,89,78,29.98,29.79,18,4,28,2.99
2013-4-15,75.1,69.9,61.0,70.0,66.1,59.0,94,88,81,30.07,29.82,14,3,16,0.00
2013-4-16,81.9,73.2,65.7,73.0,68.6,64.0,94,86,73,30.13,30.04,13,1,13,0.00
2013-4-17,80.7,73.8,67.5,71.0,68.2,64.0,94,83,71,30.15,30.03,9,1,10,0.00
2013-4-18,78.6,73.3,68.6,72.0,69.4,64.0,93,87,79,30.03,29.93,13,4,14,0.00
2013-4-19,80.0,69.6,55.0,76.0,66.1,50.0,94,89,66,30.09,29.86,13,5,40,0.07
2013-4-20,71.7,55.7,47.8,53.0,45.3,41.0,95,72,34,30.19,30.07,13,2,16,0.20
2013-4-21,73.7,61.6,49.3,64.0,54.7,43.0,94,79,62,30.17,30.08,9,2,15,0.01
2013-4-22,73.5,66.4,61.7,64.0,61.6,59.0,93,84,71,30.13,30.06,10,2,13,0.00
2013-4-23,77.9,68.6,62.6,66.0,61.4,58.0,91,78,63,30.14,30.05,8,2,13,0.00
2013-4-24,76.0,69.6,60.3,70.0,66.2,59.0,95,89,79,30.15,30.05,11,3,13,0.00
2013-4-25,80.6,73.1,68.6,71.0,68.0,65.0,94,85,63,30.22,30.10,6,1,9,0.00
2013-4-26,82.1,70.1,59.5,66.0,57.5,45.0,91,66,30,30.27,30.18,7,2,12,0.00
2013-4-27,79.5,70.5,62.2,71.0,66.4,60.0,94,87,74,30.21,30.10,11,2,12,0.00
2013-4-28,78.2,72.3,65.2,71.0,68.8,64.0,95,89,79,30.10,29.96,8,3,12,0.00
2013-4-29,77.9,72.3,67.9,72.0,69.0,65.0,94,89,77,29.99,29.92,11,2,13,0.00
2013-4-30,81.9,74.0,66.0,73.0,69.4,64.0,95,86,70,29.97,29.91,9,2,12,0.00
2013-5-1,73.7,71.7,68.9,70.0,68.6,67.0,93,90,84,29.98,29.89,9,2,15,0.35
2013-5-2,77.8,70.0,64.7,71.0,66.5,62.0,94,88,77,29.98,29.87,10,2,16,0.20
2013-5-3,73.8,67.9,64.7,70.0,65.5,63.0,95,92,83,29.89,29.76,8,2,17,0.29
2013-5-4,71.8,65.8,60.0,67.0,59.2,43.0,95,80,49,29.88,29.73,11,4,17,0.18
2013-5-5,73.3,63.6,49.8,63.0,53.0,43.0,89,69,49,29.92,29.84,13,4,24,0.04
2013-5-6,69.4,62.7,52.4,56.0,50.5,46.0,84,65,52,30.03,29.93,11,2,14,0.00
2013-5-7,72.4,68.0,62.2,62.0,59.9,55.0,90,75,66,30.04,29.92,9,3,15,0.13
2013-5-8,76.2,71.0,66.7,68.0,65.9,62.0,92,84,72,30.12,30.01,8,2,11,0.00
2013-5-9,79.7,72.2,67.0,69.0,65.8,63.0,93,81,57,30.15,30.07,7,2,10,0.00
2013-5-10,77.6,72.1,67.1,69.0,67.2,65.0,94,85,70,30.12,29.95,8,3,13,0.00
2013-5-11,75.1,71.5,67.5,73.0,69.1,66.0,94,92,84,30.07,29.94,7,1,14,0.90
2013-5-12,79.5,72.8,67.3,70.0,67.5,63.0,94,84,70,30.06,29.95,8,1,11,0.01
2013-5-13,76.5,69.0,59.6,63.0,49.8,43.0,73,52,31,30.21,30.05,11,3,17,0.00
2013-5-14,76.9,67.5,55.8,57.0,51.0,45.0,73,57,39,30.28,30.17,6,2,9,0.00
2013-5-15,78.5,69.2,58.2,69.0,62.2,55.0,91,79,54,30.22,30.07,7,2,10,0.00
2013-5-16,79.2,72.8,66.0,71.0,67.8,64.0,94,84,66,30.11,30.01,9,2,12,0.00
2013-5-17,80.3,73.7,64.7,71.0,68.3,63.0,95,83,69,30.10,30.00,7,2,8,0.00
2013-5-18,81.9,75.5,69.4,73.0,69.8,66.0,93,83,68,30.12,30.03,7,2,9,0.00
2013-5-19,83.0,75.8,70.2,73.0,70.6,68.0,93,84,70,30.07,29.99,7,2,11,0.00
2013-5-20,83.6,76.8,68.3,74.0,71.2,66.0,94,83,69,30.06,29.97,8,2,12,0.00
2013-5-21,83.7,77.8,68.9,76.0,72.8,67.0,94,84,72,30.01,29.91,9,3,12,0.00
2013-5-22,83.7,76.1,67.6,75.0,71.4,66.0,94,86,71,29.98,29.88,9,2,11,0.00
2013-5-23,87.2,79.2,75.1,75.0,73.5,72.0,92,83,65,30.01,29.92,11,2,13,0.00
2013-5-24,88.8,81.1,72.8,75.0,71.1,56.0,93,73,54,30.11,29.97,10,2,15,0.00
2013-5-25,84.7,72.8,61.6,72.0,61.3,54.0,85,68,46,30.21,30.10,8,3,12,0.00
2013-5-26,82.3,74.8,65.0,73.0,67.8,62.0,92,79,63,30.22,30.12,9,3,12,0.00
2013-5-27,83.1,74.6,64.5,73.0,66.9,63.0,94,78,61,30.18,30.07,11,2,13,0.00
2013-5-28,85.7,78.0,69.5,74.0,70.5,65.0,86,78,65,30.12,30.04,12,3,16,0.00
2013-5-29,85.4,79.9,74.1,76.0,73.7,68.0,89,81,72,30.10,30.01,17,4,17,0.00
2013-5-30,87.9,81.4,77.0,76.0,74.1,72.0,89,79,64,30.08,30.00,16,4,20,0.00
2013-5-31,85.5,80.3,76.9,75.0,73.4,71.0,86,80,70,30.09,30.00,15,4,18,0.00
2013-6-1,84.3,79.7,75.1,77.0,74.7,72.0,92,85,77,30.03,29.95,12,4,16,0.00
2013-6-2,86.2,79.0,71.7,77.0,74.4,70.0,94,86,72,29.98,29.86,9,2,11,0.00
2013-6-3,86.7,80.3,72.9,78.0,75.3,71.0,93,84,72,29.93,29.85,7,2,12,0.00
2013-6-4,85.7,80.5,77.9,78.0,76.1,75.0,92,86,77,29.97,29.89,12,5,17,0.00
2013-6-5,85.4,80.5,76.1,78.0,74.9,72.0,91,83,77,29.97,29.84,16,5,21,0.16
2013-6-6,82.0,75.3,71.1,74.0,71.3,70.0,95,88,71,29.88,29.63,12,3,19,1.02
2013-6-7,84.9,79.7,71.3,78.0,75.3,69.0,93,86,75,29.90,29.72,12,5,16,0.00
2013-6-8,85.2,80.8,77.1,78.0,76.3,74.0,92,86,76,30.03,29.89,11,4,14,0.00
2013-6-9,81.8,79.1,74.3,78.0,76.2,72.0,94,91,83,30.07,29.99,14,5,18,0.10
2013-6-10,85.4,81.0,78.2,79.0,77.1,76.0,93,88,77,30.07,30.00,14,4,16,0.00
2013-6-11,86.6,81.8,78.0,78.0,76.6,75.0,92,84,71,30.09,30.00,8,2,11,0.00
2013-6-12,87.9,82.4,78.5,80.0,77.8,76.0,92,86,77,30.08,29.99,6,2,11,0.00
2013-6-13,87.8,82.9,79.5,81.0,78.5,77.0,92,87,77,30.02,29.87,12,3,15,0.00
2013-6-14,88.8,83.8,80.5,82.0,79.1,77.0,92,86,74,29.91,29.81,14,3,16,0.00
2013-6-15,90.5,83.1,74.7,80.0,77.4,73.0,94,83,69,30.02,29.88,7,2,14,0.00
2013-6-16,88.8,83.4,78.9,79.0,77.5,75.0,92,82,69,30.07,30.00,8,4,13,0.00
2013-6-17,86.6,82.5,76.7,77.0,75.3,73.0,89,79,70,30.04,29.98,8,3,11,0.00
2013-6-18,87.6,83.0,79.0,78.0,76.0,70.0,86,79,67,30.02,29.93,11,6,16,0.00
2013-6-19,88.7,83.0,78.3,79.0,76.7,74.0,93,81,69,30.02,29.92,11,3,15,0.29
2013-6-20,89.1,82.1,76.7,79.0,74.6,72.0,91,78,65,30.07,29.98,16,1,17,0.00
2013-6-21,88.4,78.9,72.4,78.0,73.6,70.0,95,84,66,30.10,30.02,8,2,12,0.00
2013-6-22,87.4,79.0,71.2,78.0,74.0,69.0,95,85,71,30.10,30.02,11,3,13,0.05
2013-6-23,89.4,83.3,78.6,78.0,76.0,75.0,89,79,66,30.12,30.02,8,4,11,0.04
2013-6-24,89.0,81.5,74.0,79.0,76.0,73.0,95,84,70,30.16,30.08,9,2,10,0.00
2013-6-25,90.7,82.1,74.0,79.0,76.0,73.0,95,82,65,30.12,30.02,6,2,8,0.22
2013-6-26,89.1,83.0,74.1,79.0,76.2,73.0,95,80,67,30.07,29.98,7,2,10,0.00
2013-6-27,89.8,84.5,80.5,78.0,76.6,75.0,84,77,64,30.01,29.91,10,3,15,0.00
2013-6-28,87.3,83.8,79.4,81.0,77.7,74.0,90,82,66,29.93,29.79,10,3,15,0.06
2013-6-29,85.0,80.3,72.1,80.0,76.1,70.0,95,87,76,29.81,29.70,14,5,17,0.31
2013-6-30,85.5,80.5,74.4,79.0,76.0,73.0,94,86,74,29.76,29.71,15,6,21,0.44
2013-7-1,85.3,82.3,79.4,78.0,76.2,73.0,90,82,74,29.90,29.75,10,5,13,0.00
2013-7-2,86.9,82.4,77.7,79.0,76.3,72.0,89,82,73,30.01,29.88,13,6,16,0.03
2013-7-3,82.3,79.4,75.7,77.0,76.3,74.0,95,90,85,30.04,29.95,22,10,30,0.59
2013-7-4,79.4,75.8,71.6,76.0,73.7,70.0,95,93,83,30.08,29.95,29,14,35,1.67
2013-7-5,79.0,75.9,72.2,76.0,73.6,71.0,95,92,86,30.11,30.02,20,3,23,3.45
2013-7-6,81.7,78.1,73.3,78.0,75.2,72.0,95,91,86,30.07,30.00,14,5,18,0.12
2013-7-7,86.8,80.4,74.0,81.0,76.7,73.0,95,88,77,30.11,30.03,10,2,11,0.00
2013-7-8,88.2,79.7,74.7,81.0,76.5,73.0,95,90,78,30.15,30.08,8,2,10,0.00
2013-7-9,87.9,81.3,73.6,79.0,75.6,72.0,95,83,71,30.17,30.07,6,1,9,0.00
2013-7-10,89.1,82.3,76.4,78.0,76.2,74.0,94,82,70,30.10,29.98,6,2,10,0.00
2013-7-11,86.4,79.6,73.5,78.0,74.9,71.0,94,85,74,30.00,29.89,5,1,10,0.00
2013-7-12,80.6,78.3,74.5,77.0,75.0,72.0,94,89,83,29.93,29.86,8,2,14,0.58
2013-7-13,82.4,77.3,71.7,77.0,73.6,70.0,94,88,80,29.96,29.86,10,1,12,0.02
2013-7-14,86.2,79.6,72.2,79.0,75.4,71.0,96,87,73,30.04,29.89,13,5,17,1.10
2013-7-15,88.0,81.7,76.3,78.0,75.7,74.0,93,82,68,30.11,30.02,8,2,14,0.00
2013-7-16,89.5,82.4,76.2,79.0,76.3,74.0,94,82,69,30.16,30.05,9,2,15,0.33
2013-7-17,90.4,81.8,73.5,78.0,75.3,72.0,95,82,63,30.18,30.06,9,2,12,0.01
2013-7-18,88.9,81.2,73.5,79.0,75.5,72.0,94,83,71,30.13,30.02,11,2,13,0.21
2013-7-19,83.5,77.9,71.7,78.0,74.6,70.0,95,90,81,30.07,29.99,12,4,18,1.74
2013-7-20,85.3,79.9,74.1,79.0,76.3,72.0,95,88,79,30.06,29.97,19,6,31,1.33
2013-7-21,86.9,82.9,79.4,80.0,77.4,74.0,89,83,76,30.08,29.99,11,5,13,0.00
2013-7-22,85.7,78.3,72.4,80.0,75.5,71.0,95,91,83,30.12,30.01,10,4,16,3.04
2013-7-23,85.6,79.5,71.8,80.0,75.9,70.0,94,89,79,30.06,29.94,12,4,17,0.18
2013-7-24,87.1,81.0,72.9,81.0,77.2,70.0,93,88,73,29.94,29.86,15,3,20,0.17
2013-7-25,84.9,79.6,75.7,79.0,76.5,74.0,94,90,79,29.96,29.85,6,1,11,0.43
2013-7-26,90.8,83.6,77.4,79.0,77.2,75.0,95,82,62,30.02,29.95,5,1,10,0.00
2013-7-27,88.8,83.0,80.2,80.0,77.1,74.0,90,82,72,29.97,29.90,8,1,12,0.01
2013-7-28,86.3,81.8,79.1,78.0,76.2,73.0,88,83,73,30.01,29.90,10,2,16,0.01
2013-7-29,89.0,82.8,76.3,81.0,78.2,75.0,94,86,76,30.12,29.98,9,3,11,0.37
2013-7-30,88.4,83.9,80.1,80.0,77.9,76.0,89,82,73,30.16,30.07,6,2,9,0.00
2013-7-31,88.1,83.8,79.0,79.0,76.8,75.0,89,79,70,30.10,30.00,7,2,10,0.00
2013-8-1,85.1,81.2,74.2,78.0,76.3,72.0,95,85,76,30.02,29.92,9,1,9,0.24
2013-8-2,88.4,83.6,78.7,80.0,77.2,75.0,90,81,72,30.02,29.91,7,2,11,0.00
2013-8-3,88.4,84.7,81.1,80.0,78.1,77.0,87,80,71,30.06,29.97,9,3,13,0.00
2013-8-4,91.4,85.4,81.1,82.0,79.2,77.0,92,82,69,30.05,29.95,9,2,12,0.13
2013-8-5,90.2,85.0,78.3,81.0,78.9,76.0,91,82,70,30.00,29.91,5,1,13,0.00
2013-8-6,93.7,85.8,76.6,81.0,78.2,73.0,91,79,62,29.97,29.89,7,1,9,0.00
2013-8-7,91.6,82.1,77.4,83.0,77.8,75.0,95,87,64,29.98,29.87,7,1,9,0.01
2013-8-8,91.4,80.1,76.3,81.0,76.9,75.0,95,90,72,29.98,29.90,7,1,14,0.04
2013-8-9,89.7,84.1,77.3,82.0,78.5,75.0,95,83,71,30.04,29.94,7,2,14,0.27
2013-8-10,90.2,82.4,75.0,80.0,76.6,73.0,94,83,68,30.10,30.01,10,2,18,0.00
2013-8-11,91.2,84.4,76.0,81.0,78.2,74.0,95,82,67,30.14,30.06,8,2,12,0.00
2013-8-12,89.6,83.9,75.5,80.0,76.7,74.0,95,80,62,30.11,30.01,7,2,10,0.00
2013-8-13,89.8,84.7,82.1,80.0,77.8,76.0,85,80,71,30.04,29.93,7,1,12,0.00
2013-8-14,90.0,85.0,82.0,80.0,78.1,76.0,87,80,69,29.96,29.88,10,3,11,0.00
2013-8-15,89.7,83.6,79.4,79.0,76.8,74.0,88,80,67,29.96,29.90,9,2,16,0.14
2013-8-16,86.5,80.2,75.1,79.0,75.8,74.0,96,86,74,30.00,29.91,13,4,20,1.36
2013-8-17,84.3,78.0,71.9,80.0,74.8,71.0,96,90,78,30.04,29.94,14,5,25,1.81
2013-8-18,88.8,81.5,74.0,82.0,77.8,73.0,96,88,76,30.04,29.97,12,4,17,0.05
2013-8-19,90.1,81.3,74.5,82.0,77.2,73.0,96,88,71,30.04,29.96,10,2,11,0.04
2013-8-20,89.9,81.0,75.5,81.0,76.1,73.0,95,85,64,30.07,29.96,7,1,15,0.00
2013-8-21,88.9,78.5,73.7,82.0,74.7,72.0,95,88,65,30.11,30.03,6,2,14,0.36
2013-8-22,83.6,75.7,72.6,77.0,73.3,71.0,96,92,76,30.10,29.98,15,2,17,0.70
2013-8-23,87.5,77.5,73.5,80.0,74.4,72.0,95,90,77,30.01,29.94,11,2,18,0.00
2013-8-24,85.1,79.0,74.6,80.0,76.2,73.0,95,91,83,30.12,29.98,7,1,9,0.13
2013-8-25,87.4,78.0,72.6,78.0,74.3,71.0,95,88,70,30.17,30.09,7,1,15,0.54
2013-8-26,87.2,79.2,71.6,77.0,73.2,69.0,93,82,68,30.16,30.05,9,2,12,0.00
2013-8-27,88.0,78.8,71.2,79.0,74.0,70.0,95,85,73,30.09,30.00,7,2,11,0.00
2013-8-28,87.9,80.3,71.3,77.0,73.8,70.0,95,81,66,30.04,29.96,8,1,10,0.00
2013-8-29,90.5,84.4,80.3,79.0,75.8,73.0,86,76,58,30.03,29.93,7,1,11,0.00
2013-8-30,90.7,85.1,81.8,79.0,77.1,75.0,86,77,65,29.99,29.88,8,2,11,0.00
2013-8-31,86.0,80.3,73.7,79.0,76.6,72.0,95,89,78,29.95,29.86,12,3,24,1.87
2013-9-1,86.6,82.5,79.2,80.0,77.5,76.0,91,85,78,29.95,29.88,9,3,13,0.00
2013-9-2,87.7,82.3,77.0,81.0,77.6,74.0,94,85,76,30.00,29.90,15,2,15,0.34
2013-9-3,88.4,83.7,80.2,80.0,77.8,75.0,89,82,74,30.00,29.90,11,2,12,0.02
2013-9-4,88.7,83.6,75.4,80.0,77.1,73.0,94,81,71,30.06,29.95,6,2,8,0.00
2013-9-5,90.3,82.9,74.7,80.0,76.6,73.0,95,82,67,30.09,30.01,5,1,7,0.00
2013-9-6,92.4,84.2,76.6,81.0,77.5,74.0,92,80,66,30.06,29.96,7,1,10,0.00
2013-9-7,93.5,82.0,73.2,77.0,73.9,70.0,95,77,49,30.03,29.94,12,2,16,0.00
2013-9-8,90.3,81.5,71.8,77.0,72.9,70.0,94,76,56,29.98,29.91,7,2,11,0.00
2013-9-9,91.1,82.7,74.3,76.0,73.2,71.0,92,74,56,30.02,29.93,7,2,11,0.00
2013-9-10,91.7,81.6,73.6,75.0,72.9,71.0,94,76,55,30.11,30.00,8,2,11,0.00
2013-9-11,92.1,81.3,72.2,78.0,73.9,70.0,95,79,56,30.09,29.99,9,2,12,0.00
2013-9-12,90.1,80.9,72.8,77.0,73.6,71.0,95,79,62,30.03,29.89,10,3,12,0.00
2013-9-13,90.6,82.8,74.0,77.0,73.6,72.0,94,74,54,29.91,29.80,7,2,10,0.00
2013-9-14,89.5,83.5,75.6,78.0,75.4,72.0,89,77,66,29.96,29.82,7,2,9,0.00
2013-9-15,91.0,82.4,72.8,81.0,76.6,70.0,94,83,67,30.05,29.95,19,3,28,0.00
2013-9-16,92.2,82.3,74.0,79.0,76.1,72.0,95,82,64,30.06,29.98,8,2,13,0.00
2013-9-17,91.9,81.3,73.7,80.0,75.1,71.0,93,82,65,30.05,29.95,10,2,12,0.00
2013-9-18,88.4,79.7,73.0,76.0,73.7,71.0,94,82,66,30.05,29.98,9,2,15,0.08
2013-9-19,89.8,79.7,71.3,77.0,73.2,69.0,92,81,62,30.06,29.98,13,2,15,0.00
2013-9-20,87.1,81.0,73.2,79.0,75.6,71.0,94,84,72,30.00,29.88,10,4,13,0.00
2013-9-21,85.1,81.2,73.9,78.0,75.7,72.0,96,83,76,29.89,29.72,18,6,20,0.64
2013-9-22,79.6,77.3,74.0,76.0,74.4,72.0,95,90,83,29.79,29.70,15,4,23,0.65
2013-9-23,89.4,81.3,75.7,81.0,77.1,73.0,95,87,74,29.87,29.77,10,3,15,0.17
2013-9-24,87.5,80.1,74.9,80.0,76.9,74.0,96,90,77,29.88,29.79,10,2,14,0.07
2013-9-25,87.3,80.6,72.2,81.0,76.7,71.0,96,88,77,29.82,29.72,12,4,21,0.80
2013-9-26,86.3,78.4,69.7,78.0,72.6,66.0,95,83,65,29.93,29.76,9,2,11,0.00
2013-9-27,86.1,74.0,65.7,68.0,64.4,59.0,96,75,41,30.01,29.92,8,1,12,0.00
2013-9-28,87.0,74.8,65.8,73.0,67.4,62.0,90,78,62,30.05,29.98,8,2,12,0.00
2013-9-29,84.1,74.4,65.0,73.0,68.0,63.0,93,81,64,30.03,29.93,6,2,12,0.00
2013-9-30,81.8,73.8,68.8,74.0,70.1,67.0,95,89,72,29.99,29.90,6,1,8,0.00
2013-10-1,85.8,75.3,68.4,76.0,71.5,67.0,96,88,72,30.04,29.96,7,2,12,0.01
2013-10-2,86.7,78.3,71.4,76.0,73.0,69.0,94,84,68,30.05,29.99,8,2,11,0.00
2013-10-3,86.3,76.7,70.6,77.0,73.0,68.0,95,88,73,30.07,29.97,7,2,9,0.00
2013-10-4,90.8,78.7,70.7,81.0,74.8,69.0,95,88,70,30.07,29.99,9,2,12,0.00
2013-10-5,86.4,76.7,73.1,79.0,73.5,71.0,96,90,74,30.05,29.95,7,2,11,0.00
2013-10-6,83.3,76.1,71.6,78.0,73.3,70.0,95,91,84,29.96,29.80,11,4,27,1.39
2013-10-7,81.4,76.6,73.4,76.0,73.4,68.0,95,90,82,29.87,29.72,16,5,21,0.64
2013-10-8,81.5,73.9,64.4,73.0,67.2,59.0,92,80,70,29.97,29.85,7,2,14,0.00
2013-10-9,78.6,71.5,65.9,71.0,67.6,64.0,94,88,76,30.08,29.96,6,2,12,0.00
2013-10-10,83.6,72.6,62.6,70.0,66.1,62.0,96,81,61,30.08,29.99,5,1,9,0.01
2013-10-11,85.1,75.6,65.0,71.0,66.7,63.0,94,75,50,30.05,29.95,8,2,9,0.00
2013-10-12,84.5,75.6,66.0,71.0,66.6,64.0,93,75,51,30.06,29.98,5,1,9,0.00
2013-10-13,87.6,74.4,63.1,68.0,63.6,60.0,89,71,42,30.11,30.02,7,1,16,0.00
2013-10-14,83.8,73.0,65.2,71.0,65.8,63.0,94,79,57,30.08,29.99,6,1,10,0.00
2013-10-15,82.5,72.5,63.1,72.0,67.1,62.0,95,83,68,30.04,29.95,7,2,11,0.00
2013-10-16,82.1,73.3,64.0,72.0,67.9,63.0,96,84,66,30.00,29.92,5,1,10,0.00
2013-10-17,83.0,76.3,67.5,74.0,70.2,66.0,95,82,66,29.98,29.89,7,1,8,0.00
2013-10-18,82.1,77.8,74.2,76.0,73.4,72.0,95,86,78,29.98,29.89,5,2,8,0.08
2013-10-19,81.2,73.6,68.5,74.0,70.8,67.0,96,91,75,29.94,29.87,8,2,12,0.39
2013-10-20,73.9,68.3,63.9,67.0,63.8,60.0,93,85,75,30.00,29.91,8,1,13,0.00
2013-10-21,83.0,72.8,64.9,75.0,69.2,63.0,94,88,76,30.02,29.92,5,1,8,0.00
2013-10-22,74.4,70.1,67.1,71.0,68.2,66.0,96,93,88,29.97,29.84,4,1,7,0.12
2013-10-23,75.7,68.0,61.5,66.0,54.7,43.0,94,65,42,30.09,29.89,11,4,17,0.00
2013-10-24,73.8,63.2,49.8,55.0,48.2,42.0,84,60,42,30.20,30.07,5,1,9,0.00
2013-10-25,74.2,63.2,52.9,57.0,51.2,42.0,87,66,44,30.29,30.18,10,2,13,0.00
2013-10-26,72.3,58.3,44.6,57.0,44.8,39.0,82,63,30,30.28,30.15,9,2,9,0.00
2013-10-27,75.2,61.8,48.4,57.0,49.9,44.0,85,67,39,30.18,30.09,9,1,9,0.00
2013-10-28,79.7,67.0,57.1,64.0,57.6,52.0,87,73,55,30.21,30.10,7,2,9,0.00
2013-10-29,80.6,67.6,57.5,67.0,59.6,54.0,95,77,48,30.26,30.18,6,2,12,0.00
2013-10-30,83.4,70.7,61.9,71.0,65.3,59.0,95,84,63,30.24,30.12,7,2,10,0.00
2013-10-31,79.3,74.6,65.2,74.0,71.2,62.0,93,89,81,30.12,29.94,14,7,18,0.00
2013-11-1,78.9,75.6,71.5,76.0,73.5,69.0,95,93,89,29.94,29.78,11,5,17,0.24
2013-11-2,75.2,69.0,59.4,70.0,58.6,50.0,93,71,49,30.03,29.83,10,3,19,0.00
2013-11-3,72.5,60.6,49.9,50.0,45.2,43.0,81,59,36,30.18,30.03,11,2,18,0.00
2013-11-4,77.9,63.3,50.4,60.0,53.5,44.0,87,72,51,30.24,30.18,11,2,12,0.00
2013-11-5,79.2,66.2,56.1,64.0,57.7,51.0,84,75,59,30.23,30.14,11,3,18,0.00
2013-11-6,79.6,69.8,62.5,69.0,64.4,59.0,93,84,70,30.16,30.07,8,2,12,0.00
2013-11-7,77.0,68.0,54.7,72.0,64.7,48.0,95,89,77,30.12,29.99,11,2,22,0.16
2013-11-8,70.4,56.2,45.7,48.0,44.3,39.0,81,66,44,30.21,30.11,15,4,19,0.00
2013-11-9,73.9,61.2,49.9,62.0,54.8,45.0,91,80,65,30.22,30.15,7,1,12,0.00
2013-11-10,76.5,66.2,59.5,67.0,61.5,57.0,93,85,72,30.22,30.13,6,2,8,0.00
2013-11-11,76.0,63.8,53.9,61.0,56.9,52.0,94,80,50,30.21,30.11,8,2,8,0.00
2013-11-12,72.2,63.8,52.3,62.0,55.1,43.0,91,74,53,30.24,30.08,12,2,24,0.00
2013-11-13,57.0,46.6,38.5,42.0,30.5,27.0,69,55,33,30.43,30.24,16,4,24,0.00
2013-11-14,66.1,53.4,39.6,54.0,42.0,25.0,82,66,52,30.39,30.20,12,2,18,0.00
2013-11-15,64.7,61.7,58.6,63.0,59.9,54.0,96,93,82,30.20,30.03,4,2,11,0.18
2013-11-16,72.6,65.0,59.7,67.0,62.8,59.0,97,93,81,30.12,30.03,8,2,14,0.59
2013-11-17,75.6,69.7,66.0,72.0,68.0,65.0,96,94,88,30.05,29.97,7,1,14,0.01
2013-11-18,73.1,70.0,64.5,72.0,68.9,63.0,96,96,95,30.01,29.91,4,0,9,0.23
2013-11-19,68.5,60.2,51.1,63.0,49.5,43.0,95,68,49,30.04,29.95,10,3,15,0.00
2013-11-20,74.9,62.5,55.8,64.0,56.6,50.0,91,81,68,30.15,30.01,7,1,16,0.00
2013-11-21,75.1,66.7,57.1,67.0,62.3,55.0,93,86,74,30.20,30.14,11,2,13,0.00
2013-11-22,77.5,67.6,63.7,70.0,65.1,62.0,95,91,77,30.25,30.13,4,1,9,0.00
2013-11-23,75.5,67.9,63.0,70.0,64.9,58.0,96,90,81,30.14,30.06,8,2,14,0.01
2013-11-24,62.5,54.7,49.4,58.0,41.1,31.0,84,61,46,30.29,30.14,11,4,22,0.00
2013-11-25,62.9,54.5,46.3,60.0,47.6,39.0,91,77,69,30.28,30.01,12,3,17,0.00
2013-11-26,71.3,65.0,55.5,69.0,63.4,54.0,96,94,89,30.01,29.65,21,8,28,2.64
2013-11-27,57.4,48.2,40.4,56.0,41.8,31.0,94,79,62,30.29,29.76,15,6,22,0.01
2013-11-28,51.4,39.8,29.8,38.0,31.2,27.0,88,73,51,30.43,30.28,8,2,15,0.00
2013-11-29,65.5,48.0,34.8,50.0,39.6,32.0,89,74,56,30.47,30.34,7,2,12,0.00
2013-11-30,68.0,53.1,42.2,59.0,47.1,37.0,93,80,65,30.39,30.24,5,1,9,0.00
2013-12-1,66.6,56.7,50.0,59.0,53.6,48.0,96,89,73,30.24,30.03,5,1,10,0.00
2013-12-2,64.8,59.3,53.7,58.0,55.8,52.0,94,88,73,30.02,29.84,5,0,6,0.00
2013-12-3,71.2,64.7,59.0,66.0,62.3,58.0,96,92,83,29.92,29.84,4,1,5,0.01
2013-12-4,74.5,67.4,63.8,68.0,65.1,62.0,95,92,81,30.03,29.91,3,1,6,0.01
2013-12-5,74.8,68.7,65.0,71.0,66.9,64.0,96,94,87,30.11,30.02,4,1,6,0.01
2013-12-6,78.4,70.0,65.2,72.0,67.6,64.0,96,92,81,30.12,30.04,4,0,6,0.01
2013-12-7,77.7,70.6,65.5,74.0,68.2,64.0,95,92,82,30.19,30.11,4,1,7,0.01
2013-12-8,77.4,69.3,64.8,72.0,67.1,63.0,95,92,83,30.18,30.08,7,1,8,0.08
2013-12-9,77.7,71.4,67.8,73.0,69.3,66.0,95,93,85,30.12,30.05,5,1,6,0.02
2013-12-10,72.5,62.8,46.2,71.0,59.2,44.0,95,88,69,30.28,30.03,15,3,20,0.07
2013-12-11,62.8,53.0,43.4,55.0,47.0,38.0,90,80,70,30.33,30.24,7,2,10,0.00
2013-12-12,65.2,53.2,41.9,48.0,38.2,28.0,90,61,25,30.41,30.27,11,2,16,0.00
2013-12-13,63.5,50.4,35.9,55.0,44.2,31.0,93,79,67,30.35,30.09,9,2,11,0.00
2013-12-14,67.5,63.3,54.5,66.0,61.8,53.0,95,95,93,30.08,29.86,10,2,12,2.63
2013-12-15,65.7,52.1,40.2,64.0,49.2,37.0,95,90,80,30.23,29.89,11,3,16,0.04
2013-12-16,61.3,45.8,34.7,46.0,39.0,33.0,93,78,48,30.29,30.20,6,2,12,0.00
2013-12-17,63.1,52.1,40.9,51.0,43.6,37.0,90,74,46,30.32,30.21,4,1,8,0.00
2013-12-18,68.5,55.0,45.4,52.0,44.1,36.0,93,69,34,30.33,30.23,11,2,14,0.00
2013-12-19,68.1,53.6,43.3,55.0,47.0,37.0,95,79,61,30.28,30.17,10,2,10,0.00
2013-12-20,73.2,61.8,49.4,67.0,59.2,48.0,96,91,79,30.17,30.08,6,2,8,0.01
2013-12-21,74.3,67.3,64.3,69.0,65.1,62.0,95,93,84,30.07,29.95,8,3,10,0.00
2013-12-22,73.3,69.1,66.5,71.0,67.3,65.0,95,94,89,30.06,29.97,10,4,13,0.00
2013-12-23,69.4,60.1,48.8,68.0,58.8,47.0,96,95,94,30.26,30.01,19,5,19,1.61
2013-12-24,58.4,47.1,38.1,47.0,37.3,33.0,94,71,41,30.40,30.26,12,3,17,0.00
2013-12-25,61.6,47.3,33.5,49.0,39.6,30.0,87,76,54,30.35,30.22,13,2,13,0.00
2013-12-26,59.0,51.8,46.6,53.0,48.6,45.0,95,89,81,30.29,30.19,7,1,9,0.08
2013-12-27,61.6,54.1,49.9,56.0,50.9,47.0,91,89,82,30.31,30.21,9,2,11,0.02
2013-12-28,66.2,58.9,54.0,65.0,55.8,49.0,95,89,83,30.25,29.86,7,2,15,0.07
2013-12-29,66.5,59.7,51.6,65.0,57.2,50.0,95,91,83,30.07,29.84,11,3,17,1.33
2013-12-30,63.2,53.9,45.2,53.0,49.4,44.0,95,85,65,30.24,30.07,7,1,8,0.00
2013-12-31,57.0,53.6,50.3,54.0,49.9,47.0,91,87,83,30.35,30.22,5,1,9,0.00
2014-1-1,57.3,53.1,49.6,55.0,51.1,47.0,94,93,90,30.32,30.10,4,1,8,0.03
2014-1-2,63.5,56.3,44.5,62.0,53.2,31.0,96,90,58,30.14,29.84,23,3,26,0.54